sensor_id;sensor_type;location;lat;lon;timestamp;pressure;altitude;pressure_sealevel;temperature;humidity
58471;BME280;44258;51.288;12.068;2023-12-22T00:01:58;98139.00;;;6.78;62.72
58471;BME280;44258;51.288;12.068;2023-12-22T00:04:25;98133.03;;;6.74;62.79
58471;BME280;44258;51.288;12.068;2023-12-22T00:06:51;98132.78;;;6.42;63.85
58471;BME280;44258;51.288;12.068;2023-12-22T00:09:20;98130.59;;;6.47;64.07
58471;BME280;44258;51.288;12.068;2023-12-22T00:11:46;98142.09;;;6.37;64.31
58471;BME280;44258;51.288;12.068;2023-12-22T00:14:14;98140.13;;;6.27;64.89
58471;BME280;44258;51.288;12.068;2023-12-22T00:16:40;98148.44;;;6.47;64.34
58471;BME280;44258;51.288;12.068;2023-12-22T00:19:07;98147.84;;;6.19;65.42
58471;BME280;44258;51.288;12.068;2023-12-22T00:21:34;98147.41;;;6.12;65.29
58471;BME280;44258;51.288;12.068;2023-12-22T00:24:01;98151.69;;;6.15;65.67
58471;BME280;44258;51.288;12.068;2023-12-22T00:26:28;98152.56;;;6.40;64.44
58471;BME280;44258;51.288;12.068;2023-12-22T00:28:55;98154.78;;;6.46;64.42
58471;BME280;44258;51.288;12.068;2023-12-22T00:31:22;98143.19;;;6.34;64.76
58471;BME280;44258;51.288;12.068;2023-12-22T00:33:49;98155.09;;;6.65;63.61
58471;BME280;44258;51.288;12.068;2023-12-22T00:36:15;98144.97;;;6.58;63.71
58471;BME280;44258;51.288;12.068;2023-12-22T00:38:43;98160.59;;;6.51;63.64
58471;BME280;44258;51.288;12.068;2023-12-22T00:41:09;98160.16;;;6.57;62.98
58471;BME280;44258;51.288;12.068;2023-12-22T00:43:36;98161.59;;;6.50;63.25
58471;BME280;44258;51.288;12.068;2023-12-22T00:46:04;98165.91;;;6.40;63.12
58471;BME280;44258;51.288;12.068;2023-12-22T00:48:33;98168.44;;;6.17;63.73
58471;BME280;44258;51.288;12.068;2023-12-22T00:50:59;98171.63;;;6.46;62.98
58471;BME280;44258;51.288;12.068;2023-12-22T00:53:26;98171.81;;;6.56;62.33
58471;BME280;44258;51.288;12.068;2023-12-22T00:55:52;98174.00;;;6.14;63.27
58471;BME280;44258;51.288;12.068;2023-12-22T00:58:19;98168.16;;;6.09;63.23
58471;BME280;44258;51.288;12.068;2023-12-22T01:00:45;98161.34;;;6.29;62.71
58471;BME280;44258;51.288;12.068;2023-12-22T01:03:12;98179.53;;;6.48;62.33
58471;BME280;44258;51.288;12.068;2023-12-22T01:05:41;98179.81;;;6.32;61.93
58471;BME280;44258;51.288;12.068;2023-12-22T01:08:10;98180.72;;;6.44;61.67
58471;BME280;44258;51.288;12.068;2023-12-22T01:10:39;98185.16;;;6.56;61.32
58471;BME280;44258;51.288;12.068;2023-12-22T01:13:06;98190.44;;;6.45;60.94
58471;BME280;44258;51.288;12.068;2023-12-22T01:15:33;98193.72;;;6.48;61.09
58471;BME280;44258;51.288;12.068;2023-12-22T01:18:08;98191.78;;;6.26;61.53
58471;BME280;44258;51.288;12.068;2023-12-22T01:20:35;98195.31;;;6.51;60.54
58471;BME280;44258;51.288;12.068;2023-12-22T01:23:03;98186.69;;;6.23;61.03
58471;BME280;44258;51.288;12.068;2023-12-22T01:25:30;98188.22;;;6.39;60.79
58471;BME280;44258;51.288;12.068;2023-12-22T01:27:56;98188.03;;;6.29;60.43
58471;BME280;44258;51.288;12.068;2023-12-22T01:30:23;98195.03;;;6.43;60.60
58471;BME280;44258;51.288;12.068;2023-12-22T01:32:49;98209.47;;;6.40;60.52
58471;BME280;44258;51.288;12.068;2023-12-22T01:35:15;98213.06;;;6.52;60.64
58471;BME280;44258;51.288;12.068;2023-12-22T01:37:42;98216.31;;;6.56;60.70
58471;BME280;44258;51.288;12.068;2023-12-22T01:40:10;98223.19;;;6.47;60.55
58471;BME280;44258;51.288;12.068;2023-12-22T01:42:36;98233.84;;;6.23;61.33
58471;BME280;44258;51.288;12.068;2023-12-22T01:45:05;98223.00;;;6.13;62.60
58471;BME280;44258;51.288;12.068;2023-12-22T01:47:32;98233.03;;;6.09;62.99
58471;BME280;44258;51.288;12.068;2023-12-22T01:49:58;98220.78;;;6.31;62.13
58471;BME280;44258;51.288;12.068;2023-12-22T01:52:25;98227.66;;;6.22;62.70
58471;BME280;44258;51.288;12.068;2023-12-22T01:54:55;98237.72;;;6.06;63.19
58471;BME280;44258;51.288;12.068;2023-12-22T01:57:24;98240.75;;;6.38;62.70
58471;BME280;44258;51.288;12.068;2023-12-22T01:59:50;98226.50;;;6.50;61.88
58471;BME280;44258;51.288;12.068;2023-12-22T02:02:18;98226.06;;;6.57;61.37
58471;BME280;44258;51.288;12.068;2023-12-22T02:04:44;98242.59;;;6.38;61.44
58471;BME280;44258;51.288;12.068;2023-12-22T02:07:12;98218.16;;;6.18;62.03
58471;BME280;44258;51.288;12.068;2023-12-22T02:09:38;98226.28;;;6.17;62.72
58471;BME280;44258;51.288;12.068;2023-12-22T02:12:05;98222.13;;;6.25;62.28
58471;BME280;44258;51.288;12.068;2023-12-22T02:14:32;98226.72;;;6.10;63.32
58471;BME280;44258;51.288;12.068;2023-12-22T02:17:02;98224.28;;;5.94;63.93
58471;BME280;44258;51.288;12.068;2023-12-22T02:19:37;98209.25;;;5.93;64.42
58471;BME280;44258;51.288;12.068;2023-12-22T02:22:07;98228.34;;;5.74;65.38
58471;BME280;44258;51.288;12.068;2023-12-22T02:24:36;98220.13;;;6.03;64.54
58471;BME280;44258;51.288;12.068;2023-12-22T02:27:03;98217.22;;;6.19;64.14
58471;BME280;44258;51.288;12.068;2023-12-22T02:29:32;98224.19;;;6.33;63.58
58471;BME280;44258;51.288;12.068;2023-12-22T02:31:59;98215.09;;;6.48;62.93
58471;BME280;44258;51.288;12.068;2023-12-22T02:34:31;98210.16;;;6.18;63.88
58471;BME280;44258;51.288;12.068;2023-12-22T02:37:02;98205.03;;;6.28;63.44
58471;BME280;44258;51.288;12.068;2023-12-22T02:39:30;98218.72;;;6.23;63.73
58471;BME280;44258;51.288;12.068;2023-12-22T02:41:58;98215.50;;;6.18;64.12
58471;BME280;44258;51.288;12.068;2023-12-22T02:44:25;98229.34;;;6.36;63.38
58471;BME280;44258;51.288;12.068;2023-12-22T02:46:52;98220.75;;;6.20;63.89
58471;BME280;44258;51.288;12.068;2023-12-22T02:49:19;98237.69;;;6.19;63.69
58471;BME280;44258;51.288;12.068;2023-12-22T02:51:45;98231.75;;;6.15;63.93
58471;BME280;44258;51.288;12.068;2023-12-22T02:54:12;98233.41;;;6.29;63.75
58471;BME280;44258;51.288;12.068;2023-12-22T02:56:39;98229.53;;;5.96;64.47
58471;BME280;44258;51.288;12.068;2023-12-22T02:59:09;98226.06;;;6.20;64.17
58471;BME280;44258;51.288;12.068;2023-12-22T03:01:36;98223.41;;;6.20;64.16
58471;BME280;44258;51.288;12.068;2023-12-22T03:04:11;98233.94;;;6.34;63.98
58471;BME280;44258;51.288;12.068;2023-12-22T03:06:40;98240.94;;;6.48;63.50
58471;BME280;44258;51.288;12.068;2023-12-22T03:09:08;98221.28;;;6.12;64.41
58471;BME280;44258;51.288;12.068;2023-12-22T03:11:35;98233.16;;;5.57;66.28
58471;BME280;44258;51.288;12.068;2023-12-22T03:14:01;98232.19;;;5.45;66.81
58471;BME280;44258;51.288;12.068;2023-12-22T03:16:29;98237.09;;;5.77;65.97
58471;BME280;44258;51.288;12.068;2023-12-22T03:18:55;98236.78;;;5.68;66.71
58471;BME280;44258;51.288;12.068;2023-12-22T03:21:22;98248.38;;;5.80;66.75
58471;BME280;44258;51.288;12.068;2023-12-22T03:23:48;98244.97;;;6.17;65.47
58471;BME280;44258;51.288;12.068;2023-12-22T03:26:14;98236.69;;;5.96;65.78
58471;BME280;44258;51.288;12.068;2023-12-22T03:28:41;98235.34;;;5.88;65.72
58471;BME280;44258;51.288;12.068;2023-12-22T03:31:09;98250.00;;;6.08;65.02
58471;BME280;44258;51.288;12.068;2023-12-22T03:33:36;98252.03;;;5.92;65.63
58471;BME280;44258;51.288;12.068;2023-12-22T03:36:03;98242.00;;;5.96;66.31
58471;BME280;44258;51.288;12.068;2023-12-22T03:38:29;98250.75;;;5.85;66.48
58471;BME280;44258;51.288;12.068;2023-12-22T03:40:56;98249.91;;;5.59;67.86
58471;BME280;44258;51.288;12.068;2023-12-22T03:43:22;98243.88;;;5.29;69.27
58471;BME280;44258;51.288;12.068;2023-12-22T03:45:49;98256.25;;;5.43;68.93
58471;BME280;44258;51.288;12.068;2023-12-22T03:48:15;98253.94;;;5.64;68.04
58471;BME280;44258;51.288;12.068;2023-12-22T03:50:44;98239.63;;;5.78;67.71
58471;BME280;44258;51.288;12.068;2023-12-22T03:53:11;98240.28;;;5.94;66.77
58471;BME280;44258;51.288;12.068;2023-12-22T03:55:37;98231.84;;;5.49;68.54
58471;BME280;44258;51.288;12.068;2023-12-22T03:58:04;98234.09;;;5.56;68.14
58471;BME280;44258;51.288;12.068;2023-12-22T04:00:32;98261.06;;;5.64;67.56
58471;BME280;44258;51.288;12.068;2023-12-22T04:02:59;98266.63;;;5.48;68.44
58471;BME280;44258;51.288;12.068;2023-12-22T04:05:26;98264.16;;;5.58;67.83
58471;BME280;44258;51.288;12.068;2023-12-22T04:07:57;98260.94;;;5.27;69.70
58471;BME280;44258;51.288;12.068;2023-12-22T04:10:24;98254.91;;;5.50;68.55
58471;BME280;44258;51.288;12.068;2023-12-22T04:12:51;98255.66;;;5.52;68.28
58471;BME280;44258;51.288;12.068;2023-12-22T04:15:19;98241.84;;;5.20;69.40
58471;BME280;44258;51.288;12.068;2023-12-22T04:17:45;98244.09;;;5.39;68.75
58471;BME280;44258;51.288;12.068;2023-12-22T04:20:12;98221.31;;;5.48;67.79
58471;BME280;44258;51.288;12.068;2023-12-22T04:22:39;98240.06;;;5.59;67.60
58471;BME280;44258;51.288;12.068;2023-12-22T04:25:07;98231.34;;;5.57;67.56
58471;BME280;44258;51.288;12.068;2023-12-22T04:27:34;98244.34;;;5.74;66.99
58471;BME280;44258;51.288;12.068;2023-12-22T04:30:01;98234.44;;;5.77;66.87
58471;BME280;44258;51.288;12.068;2023-12-22T04:32:31;98236.34;;;5.74;66.32
58471;BME280;44258;51.288;12.068;2023-12-22T04:34:57;98250.09;;;5.56;66.83
58471;BME280;44258;51.288;12.068;2023-12-22T04:37:25;98240.50;;;5.66;66.94
58471;BME280;44258;51.288;12.068;2023-12-22T04:39:53;98228.66;;;5.44;67.71
58471;BME280;44258;51.288;12.068;2023-12-22T04:42:21;98239.66;;;5.52;67.78
58471;BME280;44258;51.288;12.068;2023-12-22T04:44:47;98240.69;;;5.11;69.01
58471;BME280;44258;51.288;12.068;2023-12-22T04:47:14;98235.25;;;5.51;67.95
58471;BME280;44258;51.288;12.068;2023-12-22T04:49:40;98226.97;;;5.56;67.75
58471;BME280;44258;51.288;12.068;2023-12-22T04:52:07;98234.31;;;5.40;68.53
58471;BME280;44258;51.288;12.068;2023-12-22T04:54:34;98227.78;;;5.18;69.18
58471;BME280;44258;51.288;12.068;2023-12-22T04:57:00;98227.06;;;5.42;67.89
58471;BME280;44258;51.288;12.068;2023-12-22T04:59:29;98222.47;;;5.31;67.66
58471;BME280;44258;51.288;12.068;2023-12-22T05:01:54;98230.78;;;5.13;68.54
58471;BME280;44258;51.288;12.068;2023-12-22T05:04:21;98225.25;;;5.42;67.15
58471;BME280;44258;51.288;12.068;2023-12-22T05:06:47;98220.44;;;5.47;66.82
58471;BME280;44258;51.288;12.068;2023-12-22T05:09:14;98227.41;;;5.63;65.71
58471;BME280;44258;51.288;12.068;2023-12-22T05:11:40;98216.28;;;5.69;65.15
58471;BME280;44258;51.288;12.068;2023-12-22T05:14:10;98220.03;;;5.41;65.96
58471;BME280;44258;51.288;12.068;2023-12-22T05:16:38;98222.69;;;5.53;65.31
58471;BME280;44258;51.288;12.068;2023-12-22T05:19:05;98229.94;;;5.51;65.30
58471;BME280;44258;51.288;12.068;2023-12-22T05:21:32;98224.72;;;5.50;65.11
58471;BME280;44258;51.288;12.068;2023-12-22T05:23:58;98220.53;;;5.20;66.05
58471;BME280;44258;51.288;12.068;2023-12-22T05:26:25;98205.63;;;5.30;65.61
58471;BME280;44258;51.288;12.068;2023-12-22T05:28:55;98225.03;;;5.45;65.03
58471;BME280;44258;51.288;12.068;2023-12-22T05:31:21;98230.69;;;5.28;64.94
58471;BME280;44258;51.288;12.068;2023-12-22T05:33:49;98234.53;;;5.49;64.41
58471;BME280;44258;51.288;12.068;2023-12-22T05:36:17;98238.22;;;5.21;65.52
58471;BME280;44258;51.288;12.068;2023-12-22T05:38:44;98254.16;;;5.48;63.99
58471;BME280;44258;51.288;12.068;2023-12-22T05:41:11;98242.09;;;5.30;64.95
58471;BME280;44258;51.288;12.068;2023-12-22T05:43:39;98244.25;;;4.98;64.99
58471;BME280;44258;51.288;12.068;2023-12-22T05:46:05;98244.94;;;5.14;65.13
58471;BME280;44258;51.288;12.068;2023-12-22T05:48:33;98239.69;;;5.00;65.64
58471;BME280;44258;51.288;12.068;2023-12-22T05:51:01;98236.00;;;5.28;64.56
58471;BME280;44258;51.288;12.068;2023-12-22T05:53:28;98235.03;;;5.16;64.46
58471;BME280;44258;51.288;12.068;2023-12-22T05:55:55;98235.88;;;5.17;64.22
58471;BME280;44258;51.288;12.068;2023-12-22T05:58:21;98233.75;;;5.22;64.14
58471;BME280;44258;51.288;12.068;2023-12-22T06:00:48;98226.19;;;5.41;63.37
58471;BME280;44258;51.288;12.068;2023-12-22T06:03:17;98235.06;;;5.54;62.93
58471;BME280;44258;51.288;12.068;2023-12-22T06:05:45;98244.66;;;5.57;63.13
58471;BME280;44258;51.288;12.068;2023-12-22T06:08:18;98232.91;;;5.60;62.54
58471;BME280;44258;51.288;12.068;2023-12-22T06:10:44;98227.59;;;5.72;62.49
58471;BME280;44258;51.288;12.068;2023-12-22T06:13:11;98247.53;;;5.41;63.40
58471;BME280;44258;51.288;12.068;2023-12-22T06:15:37;98238.16;;;5.74;62.62
58471;BME280;44258;51.288;12.068;2023-12-22T06:18:07;98242.13;;;5.68;62.91
58471;BME280;44258;51.288;12.068;2023-12-22T06:20:35;98240.41;;;5.67;62.90
58471;BME280;44258;51.288;12.068;2023-12-22T06:23:01;98246.47;;;5.82;61.93
58471;BME280;44258;51.288;12.068;2023-12-22T06:25:31;98255.44;;;5.81;62.32
58471;BME280;44258;51.288;12.068;2023-12-22T06:27:57;98243.72;;;5.71;62.67
58471;BME280;44258;51.288;12.068;2023-12-22T06:30:24;98271.97;;;5.61;62.69
58471;BME280;44258;51.288;12.068;2023-12-22T06:32:50;98265.03;;;5.97;61.64
58471;BME280;44258;51.288;12.068;2023-12-22T06:35:17;98265.56;;;6.14;61.03
58471;BME280;44258;51.288;12.068;2023-12-22T06:37:49;98269.34;;;5.99;61.35
58471;BME280;44258;51.288;12.068;2023-12-22T06:40:16;98256.31;;;6.07;61.03
58471;BME280;44258;51.288;12.068;2023-12-22T06:42:45;98255.03;;;6.00;61.42
58471;BME280;44258;51.288;12.068;2023-12-22T06:45:12;98259.19;;;5.91;61.18
58471;BME280;44258;51.288;12.068;2023-12-22T06:47:38;98259.63;;;6.11;60.55
58471;BME280;44258;51.288;12.068;2023-12-22T06:50:05;98259.78;;;5.82;61.34
58471;BME280;44258;51.288;12.068;2023-12-22T06:52:32;98263.13;;;5.73;61.65
58471;BME280;44258;51.288;12.068;2023-12-22T06:54:59;98263.00;;;5.62;62.35
58471;BME280;44258;51.288;12.068;2023-12-22T06:57:25;98283.38;;;5.63;62.90
58471;BME280;44258;51.288;12.068;2023-12-22T06:59:56;98286.16;;;5.61;63.44
58471;BME280;44258;51.288;12.068;2023-12-22T07:02:23;98276.03;;;5.79;63.52
58471;BME280;44258;51.288;12.068;2023-12-22T07:05:02;98291.72;;;5.71;64.05
58471;BME280;44258;51.288;12.068;2023-12-22T07:07:29;98283.00;;;5.29;66.65
58471;BME280;44258;51.288;12.068;2023-12-22T07:09:56;98305.69;;;5.74;65.87
58471;BME280;44258;51.288;12.068;2023-12-22T07:12:22;98291.81;;;5.57;67.43
58471;BME280;44258;51.288;12.068;2023-12-22T07:14:49;98305.72;;;5.34;68.71
58471;BME280;44258;51.288;12.068;2023-12-22T07:17:17;98328.38;;;5.14;69.77
58471;BME280;44258;51.288;12.068;2023-12-22T07:19:43;98316.09;;;5.12;69.97
58471;BME280;44258;51.288;12.068;2023-12-22T07:22:10;98332.19;;;5.38;69.01
58471;BME280;44258;51.288;12.068;2023-12-22T07:24:37;98321.88;;;5.59;68.36
58471;BME280;44258;51.288;12.068;2023-12-22T07:27:06;98322.94;;;5.69;67.18
58471;BME280;44258;51.288;12.068;2023-12-22T07:29:33;98321.47;;;5.65;67.42
58471;BME280;44258;51.288;12.068;2023-12-22T07:32:00;98325.09;;;5.24;68.18
58471;BME280;44258;51.288;12.068;2023-12-22T07:34:28;98331.31;;;5.37;67.57
58471;BME280;44258;51.288;12.068;2023-12-22T07:36:54;98324.88;;;5.54;67.21
58471;BME280;44258;51.288;12.068;2023-12-22T07:39:21;98337.13;;;5.57;67.04
58471;BME280;44258;51.288;12.068;2023-12-22T07:41:47;98345.94;;;5.17;68.76
58471;BME280;44258;51.288;12.068;2023-12-22T07:44:14;98348.19;;;5.50;67.60
58471;BME280;44258;51.288;12.068;2023-12-22T07:46:40;98329.66;;;5.62;67.16
58471;BME280;44258;51.288;12.068;2023-12-22T07:49:07;98344.81;;;5.74;66.04
58471;BME280;44258;51.288;12.068;2023-12-22T07:51:37;98361.13;;;5.82;64.96
58471;BME280;44258;51.288;12.068;2023-12-22T07:54:03;98334.88;;;5.63;65.00
58471;BME280;44258;51.288;12.068;2023-12-22T07:56:31;98356.97;;;5.78;64.90
58471;BME280;44258;51.288;12.068;2023-12-22T07:58:58;98356.69;;;5.83;64.12
58471;BME280;44258;51.288;12.068;2023-12-22T08:01:25;98355.56;;;5.60;64.92
58471;BME280;44258;51.288;12.068;2023-12-22T08:03:51;98365.59;;;5.29;66.77
58471;BME280;44258;51.288;12.068;2023-12-22T08:06:18;98387.69;;;5.58;65.42
58471;BME280;44258;51.288;12.068;2023-12-22T08:08:46;98397.44;;;5.45;66.41
58471;BME280;44258;51.288;12.068;2023-12-22T08:11:14;98402.81;;;5.30;67.01
58471;BME280;44258;51.288;12.068;2023-12-22T08:13:41;98414.44;;;5.57;66.77
58471;BME280;44258;51.288;12.068;2023-12-22T08:16:08;98415.72;;;5.64;67.09
58471;BME280;44258;51.288;12.068;2023-12-22T08:18:38;98411.88;;;5.68;67.45
58471;BME280;44258;51.288;12.068;2023-12-22T08:21:04;98430.34;;;5.17;70.18
58471;BME280;44258;51.288;12.068;2023-12-22T08:23:31;98426.84;;;5.16;69.70
58471;BME280;44258;51.288;12.068;2023-12-22T08:25:59;98427.31;;;5.23;69.19
58471;BME280;44258;51.288;12.068;2023-12-22T08:28:26;98424.78;;;4.92;70.30
58471;BME280;44258;51.288;12.068;2023-12-22T08:30:52;98459.38;;;5.21;68.59
58471;BME280;44258;51.288;12.068;2023-12-22T08:33:20;98449.78;;;5.19;67.04
58471;BME280;44258;51.288;12.068;2023-12-22T08:35:47;98465.56;;;5.22;66.31
58471;BME280;44258;51.288;12.068;2023-12-22T08:38:16;98470.56;;;4.99;66.42
58471;BME280;44258;51.288;12.068;2023-12-22T08:40:43;98450.81;;;4.75;69.53
58471;BME280;44258;51.288;12.068;2023-12-22T08:43:12;98456.31;;;4.71;70.46
58471;BME280;44258;51.288;12.068;2023-12-22T08:45:38;98480.56;;;4.52;72.39
58471;BME280;44258;51.288;12.068;2023-12-22T08:48:05;98477.22;;;4.63;72.38
58471;BME280;44258;51.288;12.068;2023-12-22T08:50:32;98486.72;;;4.96;71.85
58471;BME280;44258;51.288;12.068;2023-12-22T08:52:59;98479.00;;;4.34;72.94
58471;BME280;44258;51.288;12.068;2023-12-22T08:55:26;98464.00;;;4.47;73.32
58471;BME280;44258;51.288;12.068;2023-12-22T08:57:53;98500.22;;;4.64;72.73
58471;BME280;44258;51.288;12.068;2023-12-22T09:00:22;98506.72;;;4.75;73.00
58471;BME280;44258;51.288;12.068;2023-12-22T09:02:48;98515.25;;;4.80;72.46
58471;BME280;44258;51.288;12.068;2023-12-22T09:05:15;98517.63;;;4.84;72.42
58471;BME280;44258;51.288;12.068;2023-12-22T09:07:43;98500.03;;;4.82;72.49
58471;BME280;44258;51.288;12.068;2023-12-22T09:10:09;98506.13;;;4.98;72.73
58471;BME280;44258;51.288;12.068;2023-12-22T09:12:37;98520.66;;;5.07;72.39
58471;BME280;44258;51.288;12.068;2023-12-22T09:15:05;98526.88;;;5.07;73.13
58471;BME280;44258;51.288;12.068;2023-12-22T09:17:33;98517.63;;;4.99;72.63
58471;BME280;44258;51.288;12.068;2023-12-22T09:20:00;98536.47;;;5.10;73.72
58471;BME280;44258;51.288;12.068;2023-12-22T09:22:26;98541.41;;;4.87;74.43
58471;BME280;44258;51.288;12.068;2023-12-22T09:24:53;98542.47;;;4.85;74.29
58471;BME280;44258;51.288;12.068;2023-12-22T09:27:19;98540.72;;;4.69;74.35
58471;BME280;44258;51.288;12.068;2023-12-22T09:29:46;98544.13;;;4.43;75.42
58471;BME280;44258;51.288;12.068;2023-12-22T09:32:12;98557.00;;;4.65;75.23
58471;BME280;44258;51.288;12.068;2023-12-22T09:34:40;98549.69;;;4.83;74.29
58471;BME280;44258;51.288;12.068;2023-12-22T09:37:08;98559.47;;;4.68;74.65
58471;BME280;44258;51.288;12.068;2023-12-22T09:39:34;98582.75;;;4.64;73.80
58471;BME280;44258;51.288;12.068;2023-12-22T09:42:01;98585.19;;;4.53;73.18
58471;BME280;44258;51.288;12.068;2023-12-22T09:44:29;98583.97;;;4.59;73.96
58471;BME280;44258;51.288;12.068;2023-12-22T09:46:57;98562.63;;;4.89;72.66
58471;BME280;44258;51.288;12.068;2023-12-22T09:49:25;98551.03;;;4.90;72.13
58471;BME280;44258;51.288;12.068;2023-12-22T09:51:53;98560.91;;;5.17;72.12
58471;BME280;44258;51.288;12.068;2023-12-22T09:54:20;98567.84;;;5.19;73.09
58471;BME280;44258;51.288;12.068;2023-12-22T09:56:47;98560.34;;;5.40;73.38
58471;BME280;44258;51.288;12.068;2023-12-22T09:59:13;98560.69;;;5.63;72.67
58471;BME280;44258;51.288;12.068;2023-12-22T10:01:42;98555.84;;;5.41;73.63
58471;BME280;44258;51.288;12.068;2023-12-22T10:04:10;98553.44;;;5.65;73.00
58471;BME280;44258;51.288;12.068;2023-12-22T10:06:36;98533.09;;;5.91;72.20
58471;BME280;44258;51.288;12.068;2023-12-22T10:09:04;98539.00;;;5.82;73.06
58471;BME280;44258;51.288;12.068;2023-12-22T10:11:32;98541.16;;;5.89;72.77
58471;BME280;44258;51.288;12.068;2023-12-22T10:14:00;98534.28;;;6.00;72.85
58471;BME280;44258;51.288;12.068;2023-12-22T10:16:29;98520.97;;;6.12;72.00
58471;BME280;44258;51.288;12.068;2023-12-22T10:18:56;98535.63;;;6.20;71.31
58471;BME280;44258;51.288;12.068;2023-12-22T10:21:23;98524.66;;;6.24;71.17
58471;BME280;44258;51.288;12.068;2023-12-22T10:23:49;98519.41;;;6.23;71.61
58471;BME280;44258;51.288;12.068;2023-12-22T10:26:19;98514.03;;;6.50;70.85
58471;BME280;44258;51.288;12.068;2023-12-22T10:28:46;98516.91;;;6.72;69.54
58471;BME280;44258;51.288;12.068;2023-12-22T10:31:16;98507.31;;;6.70;70.27
58471;BME280;44258;51.288;12.068;2023-12-22T10:33:43;98503.97;;;6.53;70.90
58471;BME280;44258;51.288;12.068;2023-12-22T10:36:10;98506.44;;;6.69;70.30
58471;BME280;44258;51.288;12.068;2023-12-22T10:38:37;98501.41;;;6.78;70.12
58471;BME280;44258;51.288;12.068;2023-12-22T10:41:04;98490.50;;;6.55;70.03
58471;BME280;44258;51.288;12.068;2023-12-22T10:43:36;98494.97;;;6.29;68.64
58471;BME280;44258;51.288;12.068;2023-12-22T10:46:03;98500.13;;;6.58;67.74
58471;BME280;44258;51.288;12.068;2023-12-22T10:48:30;98492.22;;;7.07;66.88
58471;BME280;44258;51.288;12.068;2023-12-22T10:50:56;98483.16;;;6.71;66.98
58471;BME280;44258;51.288;12.068;2023-12-22T10:53:23;98468.50;;;6.90;65.99
58471;BME280;44258;51.288;12.068;2023-12-22T10:55:49;98481.75;;;6.66;65.78
58471;BME280;44258;51.288;12.068;2023-12-22T10:58:16;98473.09;;;6.88;64.29
58471;BME280;44258;51.288;12.068;2023-12-22T11:00:45;98474.59;;;6.53;65.93
58471;BME280;44258;51.288;12.068;2023-12-22T11:03:16;98465.41;;;6.58;65.45
58471;BME280;44258;51.288;12.068;2023-12-22T11:05:44;98466.59;;;6.79;64.60
58471;BME280;44258;51.288;12.068;2023-12-22T11:08:11;98454.59;;;6.98;64.40
58471;BME280;44258;51.288;12.068;2023-12-22T11:10:38;98451.72;;;7.01;64.33
58471;BME280;44258;51.288;12.068;2023-12-22T11:13:08;98454.09;;;6.67;64.49
58471;BME280;44258;51.288;12.068;2023-12-22T11:15:35;98454.44;;;6.62;64.06
58471;BME280;44258;51.288;12.068;2023-12-22T11:18:09;98467.44;;;6.67;64.08
58471;BME280;44258;51.288;12.068;2023-12-22T11:20:36;98456.66;;;6.43;65.52
58471;BME280;44258;51.288;12.068;2023-12-22T11:23:03;98443.50;;;6.65;65.08
58471;BME280;44258;51.288;12.068;2023-12-22T11:25:30;98444.03;;;6.83;64.41
58471;BME280;44258;51.288;12.068;2023-12-22T11:27:58;98459.53;;;6.91;63.83
58471;BME280;44258;51.288;12.068;2023-12-22T11:30:26;98448.50;;;6.96;63.96
58471;BME280;44258;51.288;12.068;2023-12-22T11:32:55;98459.75;;;6.62;65.05
58471;BME280;44258;51.288;12.068;2023-12-22T11:35:24;98459.53;;;6.65;65.02
58471;BME280;44258;51.288;12.068;2023-12-22T11:37:50;98453.09;;;6.93;64.68
58471;BME280;44258;51.288;12.068;2023-12-22T11:40:19;98458.47;;;6.81;65.20
58471;BME280;44258;51.288;12.068;2023-12-22T11:42:47;98450.16;;;6.72;64.78
58471;BME280;44258;51.288;12.068;2023-12-22T11:45:15;98436.88;;;7.21;63.29
58471;BME280;44258;51.288;12.068;2023-12-22T11:47:45;98445.03;;;7.06;63.78
58471;BME280;44258;51.288;12.068;2023-12-22T11:50:12;98432.28;;;7.23;63.52
58471;BME280;44258;51.288;12.068;2023-12-22T11:52:40;98421.75;;;7.45;62.33
58471;BME280;44258;51.288;12.068;2023-12-22T11:55:07;98425.47;;;7.43;63.34
58471;BME280;44258;51.288;12.068;2023-12-22T11:57:34;98424.56;;;7.55;62.90
58471;BME280;44258;51.288;12.068;2023-12-22T12:00:07;98420.56;;;7.12;64.03
58471;BME280;44258;51.288;12.068;2023-12-22T12:02:36;98407.91;;;7.27;63.67
58471;BME280;44258;51.288;12.068;2023-12-22T12:05:04;98400.50;;;7.31;62.73
58471;BME280;44258;51.288;12.068;2023-12-22T12:07:37;98399.34;;;7.22;63.03
58471;BME280;44258;51.288;12.068;2023-12-22T12:10:11;98397.81;;;7.31;63.57
58471;BME280;44258;51.288;12.068;2023-12-22T12:12:38;98393.81;;;7.49;63.05
58471;BME280;44258;51.288;12.068;2023-12-22T12:15:06;98395.31;;;7.17;64.29
58471;BME280;44258;51.288;12.068;2023-12-22T12:17:41;98380.59;;;7.35;63.48
58471;BME280;44258;51.288;12.068;2023-12-22T12:20:11;98377.63;;;7.27;63.63
58471;BME280;44258;51.288;12.068;2023-12-22T12:22:42;98374.63;;;7.56;62.98
58471;BME280;44258;51.288;12.068;2023-12-22T12:25:16;98370.66;;;7.72;62.64
58471;BME280;44258;51.288;12.068;2023-12-22T12:27:48;98376.59;;;7.65;62.87
58471;BME280;44258;51.288;12.068;2023-12-22T12:30:15;98379.84;;;7.57;63.43
58471;BME280;44258;51.288;12.068;2023-12-22T12:32:46;98360.38;;;7.31;63.92
58471;BME280;44258;51.288;12.068;2023-12-22T12:35:16;98373.19;;;7.14;63.88
58471;BME280;44258;51.288;12.068;2023-12-22T12:37:50;98358.56;;;7.07;64.65
58471;BME280;44258;51.288;12.068;2023-12-22T12:40:18;98356.19;;;7.16;64.38
58471;BME280;44258;51.288;12.068;2023-12-22T12:42:47;98343.13;;;7.24;63.83
58471;BME280;44258;51.288;12.068;2023-12-22T12:45:19;98343.00;;;7.49;63.11
58471;BME280;44258;51.288;12.068;2023-12-22T12:47:55;98345.34;;;7.65;62.31
58471;BME280;44258;51.288;12.068;2023-12-22T12:50:25;98348.00;;;7.65;62.47
58471;BME280;44258;51.288;12.068;2023-12-22T12:52:51;98352.13;;;7.82;62.37
58471;BME280;44258;51.288;12.068;2023-12-22T12:55:22;98349.72;;;7.90;61.88
58471;BME280;44258;51.288;12.068;2023-12-22T12:57:50;98353.03;;;7.70;62.64
58471;BME280;44258;51.288;12.068;2023-12-22T13:00:24;98359.41;;;7.80;62.81
58471;BME280;44258;51.288;12.068;2023-12-22T13:02:51;98349.00;;;8.00;62.20